Wednesday, October 18, 2017, 3:41 AM EDT
Back to Local

KMQE, Milton Blue Hill Observ

Location: Milton, MA, United States Lat: 42.217
Local Time: 3:41 AM EDT ( 7:41 GMT) Lon: -71.117
Time Zone: US/Eastern Elev: 629 ft

Show me the last for .
Show Coded

Time T Td Feel RH Dir Speed Gust Alt SLP Vis Weather Sky Remarks
2017-10-18 02:56 47 37 39 68 220° 16 24 30.19 30.22 0 None
2017-10-18 01:56 46 37 39 70 220° 17 - 30.20 30.24 0 6-hr Min Temp (2am): 44.1°F
6-hr Max Temp (2am): 48.0°F
2017-10-18 00:56 45 36 36 70 230° 16 25 30.21 30.25 0 24-hr Min Temp (1am): 36.0°F
24-hr Max Temp (1am): 55.9°F
2017-10-17 23:56 45 36 38 70 210° 16 - 30.22 30.26 0 None
2017-10-17 22:56 45 36 39 70 210° 14 - 30.23 30.27 0 None
2017-10-17 21:56 46 35 40 65 210° 15 - 30.23 30.27 0 None
2017-10-17 20:56 46 35 40 65 200° 14 - 30.23 30.27 0 None
2017-10-17 19:56 48 35 40 60 190° 15 23 30.21 30.26 0 6-hr Min Temp (8pm): 46.9°F
6-hr Max Temp (8pm): 55.9°F
2017-10-17 18:56 49 32 43 51 190° 15 - 30.21 30.25 0 None
2017-10-17 17:56 52 28 - 39 200° 9 - 30.20 30.24 0 None
2017-10-17 16:56 54 27 - 35 210° 8 - 30.20 30.24 0 None
2017-10-17 15:56 55 27 - 33 Variable 5 - 30.21 30.25 0 None
2017-10-17 14:56 55 27 - 33 - Calm - 30.22 30.26 0 None
2017-10-17 13:56 54 28 - 36 280° 8 - 30.23 30.27 0 6-hr Min Temp (2pm): 36.0°F
6-hr Max Temp (2pm): 54.0°F
2017-10-17 12:56 51 27 - 38 Variable 5 - 30.25 30.29 0 None
2017-10-17 11:56 50 28 48 42 Variable 6 - 30.26 30.30 0 None
2017-10-17 10:56 47 28 46 47 Variable 3 - 30.27 30.31 0 None
2017-10-17 09:56 46 31 42 55 350° 7 - 30.28 30.32 0 None
2017-10-17 08:56 41 32 36 70 330° 7 - 30.27 30.32 0 None
2017-10-17 07:56 36 31 29 81 330° 9 - 30.26 30.30 0 6-hr Min Temp (8am): 36.0°F
6-hr Max Temp (8am): 39.0°F
2017-10-17 06:56 36 30 28 78 340° 10 - 30.23 30.28 0 None
2017-10-17 05:56 36 30 30 78 340° 8 - 30.22 30.26 0 None
2017-10-17 04:56 37 30 30 75 330° 10 - 30.20 30.24 0 None
2017-10-17 03:56 37 31 29 78 330° 13 - 30.18 30.21 0 None

Support USWX by starting your Amazon purchase here.